Time;durP1;ratioP1;P1;durP2;ratioP2;P2;SDS_P1;SDS_P2;PMS_P1;PMS_P2;Temp;Humidity;BMP_temperature;BMP_pressure;BME280_temperature;BME280_humidity;BME280_pressure;Samples;Min_cycle;Max_cycle;Signal;HPM_P1;HPM_P2
2022/05/16 00:02:01;;;;;;;4.97;2.20;;;;;;;12.61;67.57;102105.06;5010966;28;20195;-71
2022/05/16 00:04:26;;;;;;;4.37;2.37;;;;;;;12.54;67.47;102100.56;5011094;28;20230;-72
2022/05/16 00:06:51;;;;;;;5.73;2.10;;;;;;;12.47;67.99;102105.44;5011042;28;20237;-71
2022/05/16 00:09:17;;;;;;;4.57;1.80;;;;;;;12.41;68.43;102108.72;5010681;28;20212;-71
2022/05/16 00:11:42;;;;;;;5.37;2.00;;;;;;;12.34;68.46;102104.19;5011204;28;20268;-71
2022/05/16 00:14:08;;;;;;;6.47;1.80;;;;;;;12.28;68.57;102110.81;5029219;28;20582;-71
2022/05/16 00:16:33;;;;;;;6.17;2.40;;;;;;;12.27;69.13;102106.50;5031970;28;20619;-71
2022/05/16 00:18:59;;;;;;;4.60;2.13;;;;;;;12.25;69.29;102109.03;5027460;28;20194;-71
2022/05/16 00:21:25;;;;;;;5.00;2.10;;;;;;;12.24;69.37;102108.97;5030385;28;20193;-71
2022/05/16 00:23:50;;;;;;;6.90;2.43;;;;;;;12.18;69.84;102109.66;5030409;28;20189;-71
2022/05/16 00:26:16;;;;;;;6.37;2.40;;;;;;;12.24;69.22;102107.28;5029839;28;20190;-71
2022/05/16 00:28:41;;;;;;;3.53;2.10;;;;;;;12.23;69.47;102102.09;5030304;28;20229;-70
2022/05/16 00:31:07;;;;;;;5.10;2.40;;;;;;;12.25;69.54;102110.72;5030064;28;20776;-71
2022/05/16 00:33:32;;;;;;;4.93;2.33;;;;;;;12.22;69.99;102110.63;5029119;28;20715;-71
2022/05/16 00:35:58;;;;;;;7.20;2.20;;;;;;;12.22;69.86;102110.63;5020430;28;20223;-71
2022/05/16 00:38:24;;;;;;;4.67;2.30;;;;;;;12.16;70.24;102106.16;5010723;28;20679;-71
2022/05/16 00:40:50;;;;;;;7.30;2.60;;;;;;;12.16;70.54;102110.44;5010365;28;20210;-71
2022/05/16 00:43:24;;;;;;;4.30;2.43;;;;;;;12.18;70.23;102106.22;5010511;28;20210;-71
2022/05/16 00:45:51;;;;;;;6.47;2.20;;;;;;;12.11;70.61;102099.09;5009461;28;20207;-71
2022/05/16 00:48:16;;;;;;;6.93;2.53;;;;;;;12.14;70.27;102100.09;5009919;28;20195;-71
2022/05/16 00:50:42;;;;;;;7.13;2.43;;;;;;;12.16;70.48;102101.03;5010379;28;20187;-71
2022/05/16 00:53:09;;;;;;;7.00;2.40;;;;;;;12.18;70.38;102098.50;5010184;28;20214;-71
2022/05/16 00:55:37;;;;;;;6.23;2.50;;;;;;;12.15;70.97;102098.41;5010404;28;20578;-71
2022/05/16 00:58:14;;;;;;;4.73;2.17;;;;;;;12.17;70.83;102097.63;5009909;28;20195;-71
2022/05/16 01:00:42;;;;;;;4.97;2.20;;;;;;;12.18;70.71;102101.97;5008792;28;20644;-71
2022/05/16 01:06:02;;;;;;;8.00;2.73;;;;;;;12.13;71.09;102095.78;5010147;28;20700;-71
2022/05/16 01:08:31;;;;;;;5.93;2.40;;;;;;;12.11;71.28;102093.97;5009768;28;20194;-71
2022/05/16 01:11:01;;;;;;;7.33;2.30;;;;;;;12.08;71.28;102097.31;5010451;28;20202;-71
2022/05/16 01:13:30;;;;;;;5.70;2.50;;;;;;;12.10;70.98;102095.69;5022008;28;20201;-71
2022/05/16 01:15:58;;;;;;;6.90;2.53;;;;;;;12.10;71.22;102079.41;5042937;28;20291;-71
2022/05/16 01:18:24;;;;;;;5.30;2.20;;;;;;;12.12;71.00;102081.19;5049772;28;20189;-71
2022/05/16 01:21:07;;;;;;;6.47;2.30;;;;;;;12.11;71.19;102082.03;5049485;28;20262;-71
2022/05/16 01:23:52;;;;;;;5.47;2.63;;;;;;;12.09;71.09;102073.41;5048343;28;20582;-71
2022/05/16 01:26:27;;;;;;;4.73;2.27;;;;;;;12.09;70.82;102063.13;5040674;28;20563;-71
2022/05/16 01:28:53;;;;;;;6.73;2.33;;;;;;;12.07;71.10;102069.91;5008641;28;20233;-71
2022/05/16 01:31:19;;;;;;;4.67;2.30;;;;;;;12.05;70.96;102065.53;5009445;28;20226;-71
2022/05/16 01:33:44;;;;;;;4.60;1.93;;;;;;;12.01;71.03;102058.56;5008290;28;20284;-71
2022/05/16 01:36:10;;;;;;;4.47;2.47;;;;;;;12.00;71.19;102057.72;5008239;28;20211;-71
2022/05/16 01:38:35;;;;;;;3.93;2.33;;;;;;;12.01;71.02;102051.75;5007895;28;20667;-72
2022/05/16 01:41:11;;;;;;;5.93;2.10;;;;;;;12.02;70.95;102047.47;5009881;28;20195;-72
2022/05/16 01:43:41;;;;;;;6.27;2.40;;;;;;;12.03;70.65;102046.66;5009592;28;20579;-71
2022/05/16 01:46:08;;;;;;;4.47;2.30;;;;;;;12.04;70.73;102044.16;5009692;28;20210;-71
2022/05/16 01:48:34;;;;;;;4.03;2.10;;;;;;;12.06;70.51;102045.06;5008922;28;20214;-71
2022/05/16 01:51:03;;;;;;;5.23;2.10;;;;;;;12.08;70.55;102038.25;5011875;28;20179;-71
2022/05/16 01:53:29;;;;;;;4.83;2.27;;;;;;;12.08;70.28;102033.13;5047330;28;20313;-71
2022/05/16 01:55:55;;;;;;;3.57;2.03;;;;;;;12.07;70.77;102033.97;5049163;28;20280;-71
2022/05/16 01:58:21;;;;;;;7.03;2.53;;;;;;;12.09;70.69;102031.44;5047835;28;20186;-71
2022/05/16 02:00:46;;;;;;;9.23;2.80;;;;;;;12.08;70.87;102028.00;5032754;28;20206;-71
2022/05/16 02:03:12;;;;;;;5.17;2.23;;;;;;;12.12;70.47;102031.56;5009232;28;20190;-71
2022/05/16 02:05:37;;;;;;;6.57;2.50;;;;;;;12.14;71.18;102033.34;5007789;28;20906;-71
2022/05/16 02:08:04;;;;;;;6.23;2.30;;;;;;;12.14;70.88;102035.91;5008316;28;20199;-71
2022/05/16 02:10:29;;;;;;;5.90;2.60;;;;;;;12.10;71.29;102026.38;5008976;28;20550;-71
2022/05/16 02:12:59;;;;;;;6.33;2.30;;;;;;;12.11;70.90;102022.97;5015883;28;20217;-71
2022/05/16 02:15:28;;;;;;;12.47;3.23;;;;;;;12.07;71.20;102021.13;5030114;28;20210;-71
2022/05/16 02:17:53;;;;;;;6.57;2.10;;;;;;;12.07;70.88;102020.28;5020367;28;20708;-71
2022/05/16 02:20:19;;;;;;;5.60;2.37;;;;;;;12.07;71.18;102016.00;5009367;28;20187;-71
2022/05/16 02:25:31;;;;;;;5.47;2.13;;;;;;;12.09;71.26;102019.50;5009291;28;20294;-71
2022/05/16 02:27:57;;;;;;;7.50;2.57;;;;;;;12.07;71.36;102021.13;5009025;28;20605;-71
2022/05/16 02:30:23;;;;;;;5.17;2.47;;;;;;;12.07;71.27;102015.13;5009464;28;20684;-71
2022/05/16 02:32:49;;;;;;;4.27;1.83;;;;;;;11.99;71.35;102012.28;4991382;28;20299;-71
2022/05/16 02:35:15;;;;;;;5.90;2.20;;;;;;;11.99;71.71;102012.28;5009731;28;20629;-71
2022/05/16 02:37:40;;;;;;;6.83;3.03;;;;;;;11.99;71.58;102004.59;5009062;28;20209;-71
2022/05/16 02:40:06;;;;;;;5.23;2.40;;;;;;;11.99;71.23;102007.16;5009045;28;20191;-71
2022/05/16 02:42:32;;;;;;;5.97;2.10;;;;;;;11.98;71.82;102009.69;5007939;28;20226;-71
2022/05/16 02:44:57;;;;;;;5.17;2.10;;;;;;;11.99;71.81;102003.75;5008619;28;20234;-70
2022/05/16 02:47:23;;;;;;;5.80;2.43;;;;;;;11.97;72.37;102003.69;5009128;28;20194;-71
2022/05/16 02:49:49;;;;;;;4.80;1.97;;;;;;;11.99;71.80;102008.88;5009017;28;20223;-71
2022/05/16 02:52:15;;;;;;;5.23;2.23;;;;;;;11.98;71.89;102008.00;5012831;28;20202;-71
2022/05/16 02:54:41;;;;;;;7.37;2.77;;;;;;;11.97;72.18;102005.38;5012081;28;20245;-71
2022/05/16 02:57:07;;;;;;;5.50;2.37;;;;;;;11.97;71.67;102007.94;5012603;28;20183;-71
2022/05/16 02:59:33;;;;;;;4.60;2.40;;;;;;;11.93;72.18;102003.56;5012451;28;20266;-71
2022/05/16 03:02:10;;;;;;;7.47;2.17;;;;;;;11.95;71.98;102005.34;5011849;28;20191;-71
2022/05/16 03:04:35;;;;;;;5.23;2.30;;;;;;;11.94;72.42;102000.16;5012506;28;20214;-71
2022/05/16 03:07:01;;;;;;;5.43;2.40;;;;;;;11.91;72.21;101993.22;5040873;28;20185;-71
2022/05/16 03:09:28;;;;;;;5.40;2.33;;;;;;;11.89;72.00;102004.28;5023536;28;20219;-71
2022/05/16 03:11:54;;;;;;;7.53;2.40;;;;;;;11.86;72.85;102009.28;5011532;28;20187;-71
2022/05/16 03:14:20;;;;;;;5.80;2.63;;;;;;;11.85;72.78;102002.41;5030340;28;20236;-71
2022/05/16 03:16:45;;;;;;;5.73;2.57;;;;;;;11.82;73.31;102000.63;5030170;28;20193;-71
2022/05/16 03:19:12;;;;;;;6.73;2.83;;;;;;;11.81;73.00;101998.88;5032248;28;20182;-71
2022/05/16 03:21:37;;;;;;;5.83;2.43;;;;;;;11.83;72.95;101994.66;5030704;28;20718;-71
2022/05/16 03:24:03;;;;;;;5.23;2.27;;;;;;;11.83;73.37;102002.38;5029880;28;20191;-71
2022/05/16 03:26:28;;;;;;;7.97;2.80;;;;;;;11.83;72.92;101997.22;5017886;28;20255;-71
2022/05/16 03:28:53;;;;;;;7.27;2.63;;;;;;;11.82;72.98;101999.75;5011507;28;20234;-71
2022/05/16 03:31:19;;;;;;;5.13;2.40;;;;;;;11.79;73.23;101990.25;5012048;28;20986;-71
2022/05/16 03:33:45;;;;;;;5.63;2.73;;;;;;;11.81;73.28;101985.19;5010167;28;20194;-71
2022/05/16 03:36:11;;;;;;;6.73;2.60;;;;;;;11.80;73.07;101986.84;5012030;28;20672;-70
2022/05/16 03:41:23;;;;;;;6.73;2.80;;;;;;;11.80;73.52;101988.56;5020475;28;20210;-71
2022/05/16 03:43:50;;;;;;;6.73;3.00;;;;;;;11.81;73.26;101990.31;5010762;28;20290;-71
2022/05/16 03:46:16;;;;;;;6.70;2.67;;;;;;;11.81;73.25;102000.56;5011204;28;20245;-71
2022/05/16 03:48:42;;;;;;;6.23;2.20;;;;;;;11.78;73.42;101988.50;5011560;28;20739;-71
2022/05/16 03:51:09;;;;;;;7.77;2.53;;;;;;;11.76;73.69;101984.16;5011245;28;20184;-71
2022/05/16 03:53:36;;;;;;;7.50;2.80;;;;;;;11.74;73.57;101973.84;5011265;28;20187;-71
2022/05/16 03:56:02;;;;;;;4.97;2.80;;;;;;;11.76;73.98;101979.03;5010994;28;20295;-70
2022/05/16 03:58:28;;;;;;;4.50;2.57;;;;;;;11.78;73.55;101987.63;5011563;28;20195;-71
2022/05/16 04:00:53;;;;;;;5.70;2.50;;;;;;;11.77;73.64;101991.91;5011487;28;20248;-71
2022/05/16 04:03:18;;;;;;;6.93;2.73;;;;;;;11.76;73.88;101995.28;5038617;28;20633;-71
2022/05/16 04:05:44;;;;;;;6.30;2.67;;;;;;;11.77;73.64;101984.22;5051014;28;20251;-71
2022/05/16 04:08:09;;;;;;;10.67;3.30;;;;;;;11.78;73.40;101978.25;5050481;28;20189;-71
2022/05/16 04:10:35;;;;;;;7.10;2.63;;;;;;;11.76;73.77;101974.75;5035022;28;20222;-71
2022/05/16 04:13:00;;;;;;;6.23;2.83;;;;;;;11.76;73.64;101972.19;5032940;28;20283;-71
2022/05/16 04:15:26;;;;;;;6.27;2.70;;;;;;;11.76;74.17;101977.31;5031475;28;20757;-71
2022/05/16 04:17:51;;;;;;;7.07;2.60;;;;;;;11.79;73.66;101971.41;5020064;28;20664;-71
2022/05/16 04:20:19;;;;;;;8.23;2.87;;;;;;;11.83;73.93;101978.38;5030457;28;20276;-71
2022/05/16 04:22:44;;;;;;;4.83;2.60;;;;;;;11.82;73.83;101977.53;5030632;28;20191;-71
2022/05/16 04:25:12;;;;;;;8.20;3.20;;;;;;;11.84;73.82;101973.31;5030231;28;20217;-71
2022/05/16 04:27:38;;;;;;;8.50;2.87;;;;;;;11.86;74.01;101979.38;5030538;28;20194;-71
2022/05/16 04:30:04;;;;;;;8.03;3.00;;;;;;;11.88;73.63;101976.84;5023413;28;20261;-71
2022/05/16 04:32:30;;;;;;;6.90;3.43;;;;;;;11.90;73.39;101965.78;5010489;28;20202;-71
2022/05/16 04:34:55;;;;;;;7.97;2.67;;;;;;;11.97;73.15;101960.03;5026867;28;20218;-71
2022/05/16 04:37:20;;;;;;;6.77;2.80;;;;;;;12.04;72.73;101958.56;5030576;28;20190;-71
2022/05/16 04:39:46;;;;;;;6.90;2.90;;;;;;;12.08;72.59;101968.09;5030583;28;20186;-71
2022/05/16 04:44:55;;;;;;;6.47;2.93;;;;;;;12.21;71.89;101962.53;5030344;28;20210;-71
2022/05/16 04:47:20;;;;;;;5.10;2.83;;;;;;;12.24;72.10;101958.34;5030127;28;20189;-71
2022/05/16 04:49:46;;;;;;;7.03;2.47;;;;;;;12.33;71.65;101965.44;5030537;28;20263;-71
2022/05/16 04:52:11;;;;;;;7.07;2.80;;;;;;;12.39;71.92;101968.22;5029122;28;20310;-71
2022/05/16 04:54:38;;;;;;;5.77;2.60;;;;;;;12.49;71.93;101965.09;5030633;28;20293;-71
2022/05/16 04:57:03;;;;;;;5.83;2.40;;;;;;;12.56;71.56;101972.13;5030374;28;20183;-72
2022/05/16 04:59:29;;;;;;;6.67;2.60;;;;;;;12.64;70.62;101962.97;5030312;28;20569;-71
2022/05/16 05:01:54;;;;;;;5.53;2.80;;;;;;;12.71;70.15;101964.84;5030235;28;20303;-72
2022/05/16 05:04:21;;;;;;;5.67;2.50;;;;;;;12.79;70.63;101965.94;5029728;28;20209;-71
2022/05/16 05:06:46;;;;;;;6.77;2.87;;;;;;;12.83;69.91;101963.53;5026275;28;20194;-71
2022/05/16 05:09:12;;;;;;;4.40;2.63;;;;;;;12.96;70.02;101969.88;5030188;28;20271;-72
2022/05/16 05:14:33;;;;;;;6.57;2.67;;;;;;;13.14;69.96;101957.56;5028779;28;20213;-72
2022/05/16 05:17:04;;;;;;;7.47;2.80;;;;;;;13.26;69.41;101949.31;5029949;28;20170;-71
2022/05/16 05:19:30;;;;;;;4.50;2.40;;;;;;;13.27;69.39;101948.47;5027802;28;20195;-72
2022/05/16 05:21:55;;;;;;;5.47;2.77;;;;;;;13.39;68.65;101953.94;5028920;28;20232;-72
2022/05/16 05:24:20;;;;;;;5.50;2.60;;;;;;;13.55;68.23;101962.09;5024764;28;20305;-71
2022/05/16 05:26:47;;;;;;;7.70;2.93;;;;;;;13.59;68.18;101957.88;5020233;28;20205;-72
2022/05/16 05:29:12;;;;;;;6.43;2.80;;;;;;;13.67;67.92;101952.06;5011722;28;20620;-73
2022/05/16 05:31:41;;;;;;;4.47;2.37;;;;;;;13.85;67.15;101955.09;5029080;28;20194;-71
2022/05/16 05:34:08;;;;;;;5.87;2.97;;;;;;;13.87;67.13;101953.44;5029401;28;20189;-73
2022/05/16 05:36:35;;;;;;;4.70;2.40;;;;;;;14.02;66.49;101958.06;5020362;28;20193;-72
2022/05/16 05:39:01;;;;;;;5.53;2.43;;;;;;;14.29;66.79;101962.19;5036124;28;20190;-77
2022/05/16 05:41:27;;;;;;;7.90;3.20;;;;;;;14.40;66.71;101952.97;5041774;28;20205;-75
2022/05/16 05:43:53;;;;;;;6.43;2.80;;;;;;;14.44;65.24;101947.06;5009516;28;20290;-74
2022/05/16 05:46:18;;;;;;;8.10;2.73;;;;;;;14.47;65.67;101946.25;5009237;28;20187;-74
2022/05/16 05:48:44;;;;;;;8.40;3.00;;;;;;;14.63;64.68;101935.41;5008290;28;20707;-74
2022/05/16 05:51:11;;;;;;;6.27;2.60;;;;;;;14.70;65.57;101937.28;5009871;28;20191;-74
2022/05/16 05:53:37;;;;;;;6.00;2.83;;;;;;;14.83;64.71;101934.97;5012209;28;20278;-75
2022/05/16 05:56:04;;;;;;;6.87;2.90;;;;;;;14.88;64.19;101938.50;5028921;28;20257;-74
2022/05/16 05:58:32;;;;;;;5.97;2.43;;;;;;;14.80;64.15;101929.78;5028258;28;20213;-74
2022/05/16 06:00:58;;;;;;;7.40;2.87;;;;;;;15.01;64.32;101922.41;5028626;28;20202;-75
2022/05/16 06:03:24;;;;;;;8.87;2.60;;;;;;;15.05;64.14;101920.78;5029690;28;20182;-74
2022/05/16 06:05:49;;;;;;;7.10;2.60;;;;;;;15.18;63.91;101928.78;5029349;28;20214;-74
2022/05/16 06:08:14;;;;;;;6.20;2.63;;;;;;;15.21;63.79;101936.56;5029226;28;20198;-73
2022/05/16 06:10:41;;;;;;;11.00;2.70;;;;;;;15.32;63.91;101932.47;5029253;28;20218;-74
2022/05/16 06:13:07;;;;;;;9.53;2.77;;;;;;;15.52;62.32;101932.84;5026550;28;20547;-74
2022/05/16 06:15:33;;;;;;;7.50;3.30;;;;;;;15.58;61.85;101936.41;5001574;28;20230;-76
2022/05/16 06:17:58;;;;;;;7.67;2.90;;;;;;;15.53;61.94;101916.50;5028877;28;20734;-73
2022/05/16 06:20:24;;;;;;;7.43;2.80;;;;;;;15.71;62.75;101915.06;5028427;28;20178;-74
2022/05/16 06:22:49;;;;;;;5.93;2.40;;;;;;;15.75;61.65;101923.75;5008213;28;20198;-74
2022/05/16 06:25:39;;;;;;;6.23;2.70;;;;;;;16.09;60.55;101921.72;5031175;28;20209;-73
2022/05/16 06:28:15;;;;;;;6.67;2.63;;;;;;;16.11;59.55;101913.97;5030224;28;20272;-75
2022/05/16 06:30:43;;;;;;;7.33;2.77;;;;;;;16.36;60.45;101916.91;5024657;28;20280;-74
2022/05/16 06:33:09;;;;;;;4.93;2.30;;;;;;;16.43;59.95;101923.03;4998565;28;20256;-75
2022/05/16 06:35:35;;;;;;;6.40;2.70;;;;;;;16.48;58.83;101922.25;5031961;28;20210;-74
2022/05/16 06:38:22;;;;;;;6.47;2.90;;;;;;;16.43;59.30;101920.47;5031854;28;20193;-74
2022/05/16 06:40:48;;;;;;;9.40;2.77;;;;;;;16.42;58.28;101922.19;5032200;28;20543;-74
2022/05/16 06:43:16;;;;;;;6.50;3.20;;;;;;;16.70;58.52;101913.03;5031904;28;20276;-75
2022/05/16 06:45:42;;;;;;;8.43;2.90;;;;;;;16.94;58.02;101921.09;5031689;28;20202;-75
2022/05/16 06:48:08;;;;;;;8.93;2.57;;;;;;;17.12;57.21;101916.97;5032218;28;20597;-74
2022/05/16 06:50:35;;;;;;;7.47;2.90;;;;;;;17.30;57.73;101911.09;5015792;28;20758;-75
2022/05/16 06:53:03;;;;;;;7.03;2.97;;;;;;;17.37;56.36;101910.31;5010651;28;20648;-75
2022/05/16 06:55:28;;;;;;;6.60;2.80;;;;;;;17.30;56.19;101918.84;5010093;28;20207;-75
2022/05/16 06:57:54;;;;;;;5.17;2.57;;;;;;;17.36;56.04;101904.25;5012028;28;20225;-75
2022/05/16 07:00:19;;;;;;;9.23;2.97;;;;;;;17.43;56.28;101908.69;5011978;28;20245;-73
2022/05/16 07:02:46;;;;;;;6.30;2.67;;;;;;;17.77;55.76;101913.25;5029462;28;20194;-73
2022/05/16 07:05:11;;;;;;;6.77;2.87;;;;;;;17.81;54.84;101908.97;5031715;28;20210;-75
2022/05/16 07:07:37;;;;;;;5.00;2.70;;;;;;;17.81;55.01;101920.19;5019663;28;20277;-74
2022/05/16 07:10:03;;;;;;;5.57;3.00;;;;;;;18.04;54.57;101910.84;5030905;28;20680;-74
2022/05/16 07:12:29;;;;;;;3.83;2.40;;;;;;;18.02;54.32;101917.78;5030443;28;20202;-75
2022/05/16 07:14:54;;;;;;;6.53;2.77;;;;;;;18.21;54.03;101914.44;5031157;28;20221;-74
2022/05/16 07:17:20;;;;;;;6.70;2.53;;;;;;;18.58;54.50;101918.97;5022740;28;20776;-74
2022/05/16 07:19:46;;;;;;;6.33;2.60;;;;;;;18.80;53.32;101918.16;5027156;28;20201;-74
2022/05/16 07:22:19;;;;;;;5.60;2.50;;;;;;;18.85;52.71;101915.59;5010651;28;20233;-74
2022/05/16 07:24:45;;;;;;;5.27;2.73;;;;;;;19.22;52.09;101897.53;5043983;28;20205;-73
2022/05/16 07:29:57;;;;;;;5.73;2.83;;;;;;;19.14;51.21;101904.41;5030247;28;20222;-74
2022/05/16 07:32:23;;;;;;;4.73;2.50;;;;;;;18.97;52.42;101910.44;5037842;28;20254;-73
2022/05/16 07:34:48;;;;;;;7.90;2.93;;;;;;;18.80;51.93;101914.72;5048643;28;20213;-74
2022/05/16 07:37:14;;;;;;;4.10;2.17;;;;;;;18.92;52.36;101915.59;5049490;28;20174;-73
2022/05/16 07:39:40;;;;;;;6.20;3.00;;;;;;;18.89;52.36;101901.75;5050965;28;20178;-74
2022/05/16 07:42:08;;;;;;;6.07;2.73;;;;;;;18.96;52.41;101914.75;5050037;28;20192;-74
2022/05/16 07:44:40;;;;;;;5.87;3.10;;;;;;;18.78;52.03;101908.63;5045970;28;20205;-74
2022/05/16 07:47:07;;;;;;;9.37;2.87;;;;;;;18.87;53.15;101903.47;5024886;28;20186;-74
2022/05/16 07:49:32;;;;;;;6.63;2.70;;;;;;;19.09;52.18;101911.31;5031447;28;20233;-73
2022/05/16 07:51:57;;;;;;;4.97;2.63;;;;;;;19.17;51.92;101904.38;5030464;28;20186;-74
2022/05/16 07:54:23;;;;;;;3.40;2.30;;;;;;;19.29;51.56;101912.25;5029967;28;20202;-73
2022/05/16 07:56:48;;;;;;;7.23;2.67;;;;;;;19.63;50.80;101905.31;5030747;28;20209;-74
2022/05/16 07:59:13;;;;;;;5.23;2.80;;;;;;;20.00;51.25;101912.22;5029041;28;20179;-74
2022/05/16 08:01:39;;;;;;;6.50;2.50;;;;;;;20.03;50.30;101905.25;5030021;28;20671;-74
2022/05/16 08:04:06;;;;;;;6.90;2.30;;;;;;;20.32;49.78;101898.28;5035369;28;20229;-74
2022/05/16 08:06:33;;;;;;;5.83;2.63;;;;;;;20.19;48.94;101895.72;5028863;28;20185;-74
2022/05/16 08:11:44;;;;;;;4.40;2.37;;;;;;;20.62;47.06;101882.53;5008975;28;20665;-74
2022/05/16 08:14:11;;;;;;;5.23;2.53;;;;;;;20.92;47.53;101881.53;5010252;28;20311;-74
2022/05/16 08:16:37;;;;;;;7.10;2.40;;;;;;;21.12;47.97;101879.66;5013211;28;20256;-74
2022/05/16 08:19:02;;;;;;;6.07;2.73;;;;;;;21.61;47.79;101884.47;5030189;28;20220;-74
2022/05/16 08:21:27;;;;;;;5.60;2.40;;;;;;;22.05;46.50;101895.38;5014139;28;20241;-74
2022/05/16 08:23:53;;;;;;;4.77;2.47;;;;;;;22.11;45.11;101884.88;5029390;28;20899;-73
2022/05/16 08:26:18;;;;;;;4.70;2.40;;;;;;;22.31;44.47;101887.25;5039965;28;20642;-74
2022/05/16 08:28:43;;;;;;;5.60;2.40;;;;;;;22.24;44.79;101875.13;5046624;28;20204;-74
2022/05/16 08:31:09;;;;;;;6.73;2.40;;;;;;;22.02;44.42;101871.91;5028418;28;20205;-73
2022/05/16 08:33:37;;;;;;;5.97;2.57;;;;;;;22.57;45.36;101876.50;5030384;28;20234;-74
2022/05/16 08:41:39;;;;;;;4.83;2.23;;;;;;;23.01;43.49;101859.31;5029575;28;20898;-74
2022/05/16 08:44:18;;;;;;;5.10;1.87;;;;;;;23.26;44.60;101854.63;5025103;28;20190;-74
2022/05/16 08:47:06;;;;;;;4.87;2.37;;;;;;;23.31;43.42;101853.66;5029880;28;20229;-73
2022/05/16 08:49:54;;;;;;;5.70;2.23;;;;;;;22.90;43.48;101848.19;5029136;28;20678;-72
2022/05/16 08:52:19;;;;;;;6.50;2.20;;;;;;;22.47;42.95;101856.63;5020700;28;20209;-72
2022/05/16 08:54:50;;;;;;;6.97;2.50;;;;;;;22.65;44.39;101865.06;5048366;28;20202;-72
2022/05/16 08:57:38;;;;;;;4.77;2.40;;;;;;;22.84;42.80;101858.69;5038546;28;20274;-73
2022/05/16 09:00:06;;;;;;;4.27;2.10;;;;;;;23.07;43.20;101851.38;5038957;28;20199;-73
2022/05/16 09:02:34;;;;;;;3.67;2.07;;;;;;;23.17;43.28;101846.88;5049024;28;20194;-73
2022/05/16 09:05:13;;;;;;;4.50;2.03;;;;;;;23.13;44.13;101853.91;5048653;28;20201;-73
2022/05/16 09:07:44;;;;;;;4.37;1.90;;;;;;;23.23;42.15;101844.19;5049174;28;20220;-73
2022/05/16 09:10:19;;;;;;;4.57;2.20;;;;;;;23.42;41.84;101846.47;5039783;28;20245;-73
2022/05/16 09:13:07;;;;;;;4.93;1.80;;;;;;;23.58;40.41;101844.47;5029274;28;20781;-73
2022/05/16 09:15:32;;;;;;;5.90;2.33;;;;;;;23.45;40.83;101845.56;5030178;28;20214;-73
2022/05/16 09:18:17;;;;;;;3.20;2.00;;;;;;;23.49;40.83;101844.63;5029275;28;20238;-72
2022/05/16 09:20:53;;;;;;;5.63;2.43;;;;;;;23.90;39.96;101845.63;5037119;28;20220;-72
2022/05/16 09:23:46;;;;;;;3.63;1.90;;;;;;;24.34;40.77;101847.34;5026902;28;20206;-72
2022/05/16 09:26:33;;;;;;;7.47;2.07;;;;;;;24.61;40.11;101838.94;5028096;28;20202;-72
2022/05/16 09:29:14;;;;;;;3.80;2.17;;;;;;;24.68;38.37;101830.91;5020264;28;20249;-72
2022/05/16 09:31:43;;;;;;;6.30;2.20;;;;;;;25.05;39.61;101831.75;5046736;28;20272;-72
2022/05/16 09:34:09;;;;;;;4.47;2.10;;;;;;;25.06;38.37;101833.50;5048210;28;20614;-72
2022/05/16 09:36:48;;;;;;;3.33;1.73;;;;;;;25.24;36.24;101826.94;5045084;28;20270;-73
2022/05/16 09:39:23;;;;;;;4.40;2.10;;;;;;;25.11;36.56;101829.00;5026590;28;20193;-73
2022/05/16 09:41:48;;;;;;;4.70;2.17;;;;;;;24.59;38.62;101832.84;5034057;28;20192;-72
2022/05/16 09:44:31;;;;;;;5.23;2.13;;;;;;;25.22;37.13;101821.72;5033092;28;20214;-73
2022/05/16 09:47:29;;;;;;;6.05;1.80;;;;;;;25.80;36.09;101814.09;5029623;28;20252;-73
2022/05/16 09:50:23;;;;;;;3.30;1.63;;;;;;;25.73;34.96;101820.41;5028539;28;20214;-73
2022/05/16 09:53:02;;;;;;;3.22;2.00;;;;;;;25.61;34.00;101819.88;5021602;28;20399;-73
2022/05/16 09:55:41;;;;;;;2.45;1.80;;;;;;;26.11;34.58;101809.72;5020588;28;20217;-72
2022/05/16 09:58:20;;;;;;;3.90;2.00;;;;;;;26.48;34.87;101804.25;5043801;28;20197;-74
2022/05/16 10:00:57;;;;;;;2.83;1.65;;;;;;;26.52;34.81;101805.88;5032161;28;20688;-73
2022/05/16 10:03:41;;;;;;;3.92;1.92;;;;;;;26.75;34.47;101798.16;5032037;28;20218;-73
2022/05/16 10:06:08;;;;;;;3.58;1.58;;;;;;;26.01;33.56;101795.13;5032608;28;20283;-73
2022/05/16 10:08:37;;;;;;;4.20;1.77;;;;;;;26.22;33.99;101802.41;5024870;28;20216;-73
2022/05/16 10:11:08;;;;;;;2.70;1.60;;;;;;;26.71;33.40;101788.66;5033166;28;20279;-73
2022/05/16 10:13:34;;;;;;;3.28;1.50;;;;;;;26.58;33.92;101795.19;5027036;28;20235;-73
2022/05/16 10:16:05;;;;;;;3.95;1.58;;;;;;;26.88;33.51;101781.94;5031703;28;20221;-73
2022/05/16 10:18:36;;;;;;;3.72;1.88;;;;;;;26.93;32.24;101785.28;5020679;28;20237;-73
2022/05/16 10:21:10;;;;;;;4.75;1.80;;;;;;;26.52;32.42;101793.59;5026158;28;20205;-73
2022/05/16 10:23:42;;;;;;;5.22;1.70;;;;;;;26.57;32.13;101783.81;5030643;28;20190;-73
2022/05/16 10:26:12;;;;;;;5.50;2.20;;;;;;;26.65;31.10;101779.19;5032185;28;20240;-73
2022/05/16 10:28:46;;;;;;;5.60;2.17;;;;;;;27.10;34.14;101775.06;5031237;28;20191;-73
2022/05/16 10:34:08;;;;;;;3.15;1.85;;;;;;;27.53;31.57;101777.13;5027056;28;20202;-73
2022/05/16 10:36:35;;;;;;;3.28;1.60;;;;;;;27.46;31.51;101779.09;5032538;28;20181;-74
2022/05/16 10:39:03;;;;;;;6.18;1.90;;;;;;;27.40;31.04;101775.81;5031262;28;20220;-73
2022/05/16 10:41:39;;;;;;;2.70;1.55;;;;;;;27.15;31.58;101764.38;5031474;28;20198;-73
2022/05/16 10:44:25;;;;;;;2.80;1.55;;;;;;;27.54;31.30;101771.78;5029991;28;20186;-73
2022/05/16 10:47:02;;;;;;;3.97;1.60;;;;;;;27.92;31.99;101775.69;5031069;28;20241;-73
2022/05/16 10:49:35;;;;;;;4.45;1.90;;;;;;;27.93;30.86;101764.22;5010264;28;20222;-73
2022/05/16 10:52:17;;;;;;;5.10;2.00;;;;;;;27.87;31.33;101759.19;5025202;28;20233;-73
2022/05/16 10:54:43;;;;;;;6.78;2.00;;;;;;;28.28;31.32;101763.75;5030236;28;20687;-74
2022/05/16 10:57:31;;;;;;;4.38;1.98;;;;;;;28.27;31.01;101760.25;5031075;28;20178;-74
2022/05/16 11:00:11;;;;;;;2.75;1.92;;;;;;;28.01;31.31;101762.19;5031676;28;20654;-73
2022/05/16 11:03:15;;;;;;;4.57;2.20;;;;;;;27.93;31.26;101757.19;5030988;28;20201;-73
2022/05/16 11:06:18;;;;;;;3.30;1.90;;;;;;;28.39;32.60;101765.09;5033629;28;20225;-73
2022/05/16 11:09:06;;;;;;;5.47;1.92;;;;;;;28.31;31.21;101751.31;5031131;28;20186;-73
2022/05/16 11:11:54;;;;;;;4.30;1.85;;;;;;;27.89;31.83;101758.22;5010749;28;20217;-73
2022/05/16 11:14:30;;;;;;;3.03;1.90;;;;;;;28.14;31.24;101745.84;5026486;28;20973;-74
2022/05/16 11:17:40;;;;;;;2.35;1.88;;;;;;;28.24;31.17;101748.97;5012011;28;20182;-73
2022/05/16 11:20:10;;;;;;;5.10;1.85;;;;;;;27.83;30.72;101745.28;5007380;28;20243;-73
2022/05/16 11:22:42;;;;;;;3.83;2.10;;;;;;;27.80;31.14;101737.50;5022966;28;20268;-73
2022/05/16 11:25:43;;;;;;;4.82;2.22;;;;;;;27.30;30.93;101727.91;5030688;28;20225;-73
2022/05/16 11:28:36;;;;;;;5.03;2.13;;;;;;;27.95;30.42;101725.53;5030683;28;20193;-73
2022/05/16 11:31:12;;;;;;;3.28;1.60;;;;;;;27.83;29.80;101708.41;5030575;28;20233;-73
2022/05/16 11:33:47;;;;;;;3.80;1.80;;;;;;;27.74;30.38;101719.28;5030831;28;20229;-73
2022/05/16 11:36:34;;;;;;;3.50;1.70;;;;;;;28.21;31.27;101710.44;5030962;28;20690;-74
2022/05/16 11:39:07;;;;;;;2.75;1.75;;;;;;;28.48;30.57;101700.59;5020687;28;20782;-74
2022/05/16 11:41:57;;;;;;;3.97;1.70;;;;;;;28.07;31.16;101698.69;5009468;28;20191;-74
2022/05/16 11:44:50;;;;;;;2.72;1.83;;;;;;;27.69;30.62;101696.66;4998947;28;20686;-73
2022/05/16 11:47:48;;;;;;;3.55;1.90;;;;;;;27.97;31.15;101697.34;5030681;28;20201;-73
2022/05/16 11:50:33;;;;;;;4.25;1.90;;;;;;;28.44;30.20;101696.34;5030184;28;20579;-74
2022/05/16 11:53:23;;;;;;;6.05;1.95;;;;;;;28.21;31.17;101702.53;5030506;28;20186;-74
2022/05/16 12:01:38;;;;;;;3.70;1.92;;;;;;;27.71;31.36;101697.44;5031366;28;20194;-74
2022/05/16 12:04:21;;;;;;;4.97;2.20;;;;;;;27.84;31.42;101698.72;5030006;28;20213;-73
2022/05/16 12:06:53;;;;;;;4.13;1.98;;;;;;;28.07;30.94;101696.06;5029906;28;20182;-74
2022/05/16 12:09:24;;;;;;;4.60;1.88;;;;;;;28.16;31.26;101690.44;5030038;28;20214;-74
2022/05/16 12:11:57;;;;;;;6.32;2.10;;;;;;;28.09;30.71;101694.25;5029660;28;20178;-74